sensor_id;sensor_type;location;lat;lon;timestamp;P1;durP1;ratioP1;P2;durP2;ratioP2
6386;SDS011;3226;42.162;24.756;2023-07-02T00:00:32;13.33;;;12.73;;
6386;SDS011;3226;42.162;24.756;2023-07-02T00:03:00;11.20;;;10.70;;
6386;SDS011;3226;42.162;24.756;2023-07-02T00:05:29;9.03;;;8.63;;
6386;SDS011;3226;42.162;24.756;2023-07-02T00:07:57;6.90;;;6.60;;
6386;SDS011;3226;42.162;24.756;2023-07-02T00:10:25;7.00;;;6.70;;
6386;SDS011;3226;42.162;24.756;2023-07-02T00:12:53;9.47;;;9.07;;
6386;SDS011;3226;42.162;24.756;2023-07-02T00:15:21;7.50;;;7.20;;
6386;SDS011;3226;42.162;24.756;2023-07-02T00:17:50;7.23;;;6.93;;
6386;SDS011;3226;42.162;24.756;2023-07-02T00:20:19;5.53;;;5.33;;
6386;SDS011;3226;42.162;24.756;2023-07-02T00:22:48;6.90;;;6.60;;
6386;SDS011;3226;42.162;24.756;2023-07-02T00:25:16;9.30;;;8.90;;
6386;SDS011;3226;42.162;24.756;2023-07-02T00:27:44;7.50;;;7.20;;
6386;SDS011;3226;42.162;24.756;2023-07-02T00:30:12;8.23;;;7.93;;
6386;SDS011;3226;42.162;24.756;2023-07-02T00:32:40;9.33;;;8.93;;
6386;SDS011;3226;42.162;24.756;2023-07-02T00:35:10;10.63;;;10.13;;
6386;SDS011;3226;42.162;24.756;2023-07-02T00:37:38;8.97;;;8.57;;
6386;SDS011;3226;42.162;24.756;2023-07-02T00:40:06;9.43;;;9.03;;
6386;SDS011;3226;42.162;24.756;2023-07-02T00:42:35;8.03;;;7.73;;
6386;SDS011;3226;42.162;24.756;2023-07-02T00:45:04;8.63;;;8.23;;
6386;SDS011;3226;42.162;24.756;2023-07-02T00:47:33;7.87;;;7.57;;
6386;SDS011;3226;42.162;24.756;2023-07-02T00:50:02;7.17;;;6.87;;
6386;SDS011;3226;42.162;24.756;2023-07-02T00:52:33;6.97;;;6.67;;
6386;SDS011;3226;42.162;24.756;2023-07-02T00:55:01;7.93;;;7.63;;
6386;SDS011;3226;42.162;24.756;2023-07-02T00:57:29;6.67;;;6.37;;
6386;SDS011;3226;42.162;24.756;2023-07-02T00:59:57;7.43;;;7.13;;
6386;SDS011;3226;42.162;24.756;2023-07-02T01:02:27;7.57;;;7.27;;
6386;SDS011;3226;42.162;24.756;2023-07-02T01:04:56;7.37;;;7.07;;
6386;SDS011;3226;42.162;24.756;2023-07-02T01:07:27;7.97;;;7.67;;
6386;SDS011;3226;42.162;24.756;2023-07-02T01:09:57;7.53;;;7.23;;
6386;SDS011;3226;42.162;24.756;2023-07-02T01:12:25;8.13;;;7.83;;
6386;SDS011;3226;42.162;24.756;2023-07-02T01:14:56;6.87;;;6.57;;
6386;SDS011;3226;42.162;24.756;2023-07-02T01:17:28;7.40;;;7.10;;
6386;SDS011;3226;42.162;24.756;2023-07-02T01:20:06;7.40;;;7.10;;
6386;SDS011;3226;42.162;24.756;2023-07-02T01:22:36;7.03;;;6.73;;
6386;SDS011;3226;42.162;24.756;2023-07-02T01:25:05;9.03;;;8.63;;
6386;SDS011;3226;42.162;24.756;2023-07-02T01:27:34;8.40;;;8.03;;
6386;SDS011;3226;42.162;24.756;2023-07-02T01:30:03;8.37;;;8.07;;
6386;SDS011;3226;42.162;24.756;2023-07-02T01:32:33;7.60;;;7.30;;
6386;SDS011;3226;42.162;24.756;2023-07-02T01:35:01;7.27;;;6.97;;
6386;SDS011;3226;42.162;24.756;2023-07-02T01:37:31;9.13;;;8.73;;
6386;SDS011;3226;42.162;24.756;2023-07-02T01:40:04;7.27;;;6.97;;
6386;SDS011;3226;42.162;24.756;2023-07-02T01:42:34;7.07;;;6.77;;
6386;SDS011;3226;42.162;24.756;2023-07-02T01:45:02;6.97;;;6.67;;
6386;SDS011;3226;42.162;24.756;2023-07-02T01:47:31;5.70;;;5.50;;
6386;SDS011;3226;42.162;24.756;2023-07-02T01:49:59;6.17;;;5.97;;
6386;SDS011;3226;42.162;24.756;2023-07-02T01:52:27;7.07;;;6.77;;
6386;SDS011;3226;42.162;24.756;2023-07-02T01:55:01;6.53;;;6.23;;
6386;SDS011;3226;42.162;24.756;2023-07-02T01:57:29;6.97;;;6.67;;
6386;SDS011;3226;42.162;24.756;2023-07-02T01:59:58;7.77;;;7.47;;
6386;SDS011;3226;42.162;24.756;2023-07-02T02:02:26;7.43;;;7.13;;
6386;SDS011;3226;42.162;24.756;2023-07-02T02:04:54;7.47;;;7.17;;
6386;SDS011;3226;42.162;24.756;2023-07-02T02:07:23;7.50;;;7.20;;
6386;SDS011;3226;42.162;24.756;2023-07-02T02:09:52;8.00;;;7.70;;
6386;SDS011;3226;42.162;24.756;2023-07-02T02:12:21;8.37;;;7.97;;
6386;SDS011;3226;42.162;24.756;2023-07-02T02:14:49;9.27;;;8.87;;
6386;SDS011;3226;42.162;24.756;2023-07-02T02:17:17;8.50;;;8.10;;
6386;SDS011;3226;42.162;24.756;2023-07-02T02:19:45;8.50;;;8.10;;
6386;SDS011;3226;42.162;24.756;2023-07-02T02:22:14;7.50;;;7.20;;
6386;SDS011;3226;42.162;24.756;2023-07-02T02:24:42;9.00;;;8.60;;
6386;SDS011;3226;42.162;24.756;2023-07-02T02:27:09;10.33;;;9.90;;
6386;SDS011;3226;42.162;24.756;2023-07-02T02:29:39;11.00;;;10.50;;
6386;SDS011;3226;42.162;24.756;2023-07-02T02:32:07;10.07;;;9.67;;
6386;SDS011;3226;42.162;24.756;2023-07-02T02:34:35;9.33;;;8.93;;
6386;SDS011;3226;42.162;24.756;2023-07-02T02:37:03;9.33;;;8.93;;
6386;SDS011;3226;42.162;24.756;2023-07-02T02:39:31;8.67;;;8.27;;
6386;SDS011;3226;42.162;24.756;2023-07-02T02:41:59;8.20;;;7.90;;
6386;SDS011;3226;42.162;24.756;2023-07-02T02:44:27;8.70;;;8.30;;
6386;SDS011;3226;42.162;24.756;2023-07-02T02:46:57;6.73;;;6.43;;
6386;SDS011;3226;42.162;24.756;2023-07-02T02:49:26;7.23;;;6.83;;
6386;SDS011;3226;42.162;24.756;2023-07-02T02:51:54;7.13;;;6.83;;
6386;SDS011;3226;42.162;24.756;2023-07-02T02:54:22;8.17;;;7.87;;
6386;SDS011;3226;42.162;24.756;2023-07-02T02:56:50;8.13;;;7.83;;
6386;SDS011;3226;42.162;24.756;2023-07-02T02:59:18;7.47;;;7.17;;
6386;SDS011;3226;42.162;24.756;2023-07-02T03:01:46;6.20;;;6.00;;
6386;SDS011;3226;42.162;24.756;2023-07-02T03:04:16;7.07;;;6.77;;
6386;SDS011;3226;42.162;24.756;2023-07-02T03:06:44;6.83;;;6.53;;
6386;SDS011;3226;42.162;24.756;2023-07-02T03:09:12;7.83;;;7.53;;
6386;SDS011;3226;42.162;24.756;2023-07-02T03:11:40;7.20;;;6.90;;
6386;SDS011;3226;42.162;24.756;2023-07-02T03:14:08;7.50;;;7.20;;
6386;SDS011;3226;42.162;24.756;2023-07-02T03:16:36;5.93;;;5.73;;
6386;SDS011;3226;42.162;24.756;2023-07-02T03:19:04;7.27;;;6.97;;
6386;SDS011;3226;42.162;24.756;2023-07-02T03:21:34;7.10;;;6.80;;
6386;SDS011;3226;42.162;24.756;2023-07-02T03:24:02;7.67;;;7.37;;
6386;SDS011;3226;42.162;24.756;2023-07-02T03:26:30;7.60;;;7.30;;
6386;SDS011;3226;42.162;24.756;2023-07-02T03:28:58;7.37;;;7.07;;
6386;SDS011;3226;42.162;24.756;2023-07-02T03:31:26;8.07;;;7.77;;
6386;SDS011;3226;42.162;24.756;2023-07-02T03:33:54;8.30;;;7.90;;
6386;SDS011;3226;42.162;24.756;2023-07-02T03:36:22;9.90;;;9.50;;
6386;SDS011;3226;42.162;24.756;2023-07-02T03:38:51;12.27;;;11.77;;
6386;SDS011;3226;42.162;24.756;2023-07-02T03:41:19;10.97;;;10.47;;
6386;SDS011;3226;42.162;24.756;2023-07-02T03:43:47;8.67;;;8.27;;
6386;SDS011;3226;42.162;24.756;2023-07-02T03:46:15;7.53;;;7.23;;
6386;SDS011;3226;42.162;24.756;2023-07-02T03:48:43;7.13;;;6.83;;
6386;SDS011;3226;42.162;24.756;2023-07-02T03:51:11;6.57;;;6.27;;
6386;SDS011;3226;42.162;24.756;2023-07-02T03:53:40;7.10;;;6.80;;
6386;SDS011;3226;42.162;24.756;2023-07-02T03:56:10;8.00;;;7.70;;
6386;SDS011;3226;42.162;24.756;2023-07-02T03:58:39;7.33;;;7.03;;
6386;SDS011;3226;42.162;24.756;2023-07-02T04:01:07;7.30;;;7.00;;
6386;SDS011;3226;42.162;24.756;2023-07-02T04:03:36;7.03;;;6.73;;
6386;SDS011;3226;42.162;24.756;2023-07-02T04:06:04;7.47;;;7.17;;
6386;SDS011;3226;42.162;24.756;2023-07-02T04:08:33;6.23;;;6.00;;
6386;SDS011;3226;42.162;24.756;2023-07-02T04:11:01;6.20;;;5.97;;
6386;SDS011;3226;42.162;24.756;2023-07-02T04:13:30;7.27;;;6.97;;
6386;SDS011;3226;42.162;24.756;2023-07-02T04:15:58;6.63;;;6.33;;
6386;SDS011;3226;42.162;24.756;2023-07-02T04:18:26;8.23;;;7.93;;
6386;SDS011;3226;42.162;24.756;2023-07-02T04:20:55;7.23;;;6.93;;
6386;SDS011;3226;42.162;24.756;2023-07-02T04:23:23;7.03;;;6.73;;
6386;SDS011;3226;42.162;24.756;2023-07-02T04:25:52;7.13;;;6.83;;
6386;SDS011;3226;42.162;24.756;2023-07-02T04:28:41;7.33;;;7.03;;
6386;SDS011;3226;42.162;24.756;2023-07-02T04:31:09;7.57;;;7.27;;
6386;SDS011;3226;42.162;24.756;2023-07-02T04:33:37;9.70;;;9.30;;
6386;SDS011;3226;42.162;24.756;2023-07-02T04:36:06;8.70;;;8.30;;
6386;SDS011;3226;42.162;24.756;2023-07-02T04:38:34;9.93;;;9.53;;
6386;SDS011;3226;42.162;24.756;2023-07-02T04:41:02;11.40;;;10.90;;
6386;SDS011;3226;42.162;24.756;2023-07-02T04:43:32;11.40;;;10.80;;
6386;SDS011;3226;42.162;24.756;2023-07-02T04:46:02;8.90;;;8.50;;
6386;SDS011;3226;42.162;24.756;2023-07-02T04:48:34;8.80;;;8.40;;
6386;SDS011;3226;42.162;24.756;2023-07-02T04:51:02;7.20;;;6.90;;
6386;SDS011;3226;42.162;24.756;2023-07-02T04:53:30;7.97;;;7.67;;
6386;SDS011;3226;42.162;24.756;2023-07-02T04:55:58;9.97;;;9.57;;
6386;SDS011;3226;42.162;24.756;2023-07-02T04:58:27;11.73;;;11.23;;
6386;SDS011;3226;42.162;24.756;2023-07-02T05:00:55;7.93;;;7.63;;
6386;SDS011;3226;42.162;24.756;2023-07-02T05:03:24;6.53;;;6.23;;
6386;SDS011;3226;42.162;24.756;2023-07-02T05:05:54;10.00;;;9.60;;
6386;SDS011;3226;42.162;24.756;2023-07-02T05:08:22;11.63;;;11.13;;
6386;SDS011;3226;42.162;24.756;2023-07-02T05:10:50;8.00;;;7.70;;
6386;SDS011;3226;42.162;24.756;2023-07-02T05:13:18;8.23;;;7.87;;
6386;SDS011;3226;42.162;24.756;2023-07-02T05:15:46;9.50;;;9.10;;
6386;SDS011;3226;42.162;24.756;2023-07-02T05:18:14;7.47;;;7.17;;
6386;SDS011;3226;42.162;24.756;2023-07-02T05:20:43;7.87;;;7.57;;
6386;SDS011;3226;42.162;24.756;2023-07-02T05:23:11;7.03;;;6.73;;
6386;SDS011;3226;42.162;24.756;2023-07-02T05:25:39;7.07;;;6.77;;
6386;SDS011;3226;42.162;24.756;2023-07-02T05:28:07;7.17;;;6.87;;
6386;SDS011;3226;42.162;24.756;2023-07-02T05:30:35;8.57;;;8.17;;
6386;SDS011;3226;42.162;24.756;2023-07-02T05:33:03;7.13;;;6.83;;
6386;SDS011;3226;42.162;24.756;2023-07-02T05:35:31;6.67;;;6.37;;
6386;SDS011;3226;42.162;24.756;2023-07-02T05:38:01;7.47;;;7.17;;
6386;SDS011;3226;42.162;24.756;2023-07-02T05:40:28;6.97;;;6.67;;
6386;SDS011;3226;42.162;24.756;2023-07-02T05:42:57;7.53;;;7.23;;
6386;SDS011;3226;42.162;24.756;2023-07-02T05:45:25;7.67;;;7.37;;
6386;SDS011;3226;42.162;24.756;2023-07-02T05:47:53;6.83;;;6.53;;
6386;SDS011;3226;42.162;24.756;2023-07-02T05:50:22;8.43;;;8.03;;
6386;SDS011;3226;42.162;24.756;2023-07-02T05:52:50;11.30;;;10.80;;
6386;SDS011;3226;42.162;24.756;2023-07-02T05:55:20;9.70;;;9.27;;
6386;SDS011;3226;42.162;24.756;2023-07-02T05:57:48;14.27;;;13.67;;
6386;SDS011;3226;42.162;24.756;2023-07-02T06:00:16;13.57;;;12.97;;
6386;SDS011;3226;42.162;24.756;2023-07-02T06:02:46;9.97;;;9.57;;
6386;SDS011;3226;42.162;24.756;2023-07-02T06:05:14;7.63;;;7.33;;
6386;SDS011;3226;42.162;24.756;2023-07-02T06:07:42;9.73;;;9.33;;
6386;SDS011;3226;42.162;24.756;2023-07-02T06:10:10;8.73;;;8.33;;
6386;SDS011;3226;42.162;24.756;2023-07-02T06:12:40;8.90;;;8.50;;
6386;SDS011;3226;42.162;24.756;2023-07-02T06:15:09;8.63;;;8.13;;
6386;SDS011;3226;42.162;24.756;2023-07-02T06:17:38;7.27;;;6.97;;
6386;SDS011;3226;42.162;24.756;2023-07-02T06:20:06;9.00;;;8.60;;
6386;SDS011;3226;42.162;24.756;2023-07-02T06:22:35;7.23;;;6.93;;
6386;SDS011;3226;42.162;24.756;2023-07-02T06:25:03;8.20;;;7.90;;
6386;SDS011;3226;42.162;24.756;2023-07-02T06:27:32;8.80;;;8.40;;
6386;SDS011;3226;42.162;24.756;2023-07-02T06:30:01;8.37;;;8.03;;
6386;SDS011;3226;42.162;24.756;2023-07-02T06:32:29;7.23;;;6.93;;
6386;SDS011;3226;42.162;24.756;2023-07-02T06:34:57;6.17;;;5.97;;
6386;SDS011;3226;42.162;24.756;2023-07-02T06:37:26;7.50;;;7.20;;
6386;SDS011;3226;42.162;24.756;2023-07-02T06:39:53;6.87;;;6.57;;
6386;SDS011;3226;42.162;24.756;2023-07-02T06:42:22;6.03;;;5.83;;
6386;SDS011;3226;42.162;24.756;2023-07-02T06:44:50;5.80;;;5.60;;
6386;SDS011;3226;42.162;24.756;2023-07-02T06:47:19;6.47;;;6.17;;
6386;SDS011;3226;42.162;24.756;2023-07-02T06:49:47;6.87;;;6.57;;
6386;SDS011;3226;42.162;24.756;2023-07-02T06:52:15;6.77;;;6.47;;
6386;SDS011;3226;42.162;24.756;2023-07-02T06:54:43;7.60;;;7.30;;
6386;SDS011;3226;42.162;24.756;2023-07-02T06:57:12;6.80;;;6.50;;
6386;SDS011;3226;42.162;24.756;2023-07-02T06:59:40;7.33;;;7.03;;
6386;SDS011;3226;42.162;24.756;2023-07-02T07:02:08;7.80;;;7.50;;
6386;SDS011;3226;42.162;24.756;2023-07-02T07:04:38;7.30;;;7.00;;
6386;SDS011;3226;42.162;24.756;2023-07-02T07:07:06;8.90;;;8.50;;
6386;SDS011;3226;42.162;24.756;2023-07-02T07:09:34;6.47;;;6.17;;
6386;SDS011;3226;42.162;24.756;2023-07-02T07:12:02;6.83;;;6.53;;
6386;SDS011;3226;42.162;24.756;2023-07-02T07:14:30;6.53;;;6.23;;
6386;SDS011;3226;42.162;24.756;2023-07-02T07:16:58;7.13;;;6.83;;
6386;SDS011;3226;42.162;24.756;2023-07-02T07:19:27;7.87;;;7.57;;
6386;SDS011;3226;42.162;24.756;2023-07-02T07:21:56;7.17;;;6.87;;
6386;SDS011;3226;42.162;24.756;2023-07-02T07:24:25;6.77;;;6.47;;
6386;SDS011;3226;42.162;24.756;2023-07-02T07:26:53;7.33;;;7.03;;
6386;SDS011;3226;42.162;24.756;2023-07-02T07:29:21;6.17;;;5.97;;
6386;SDS011;3226;42.162;24.756;2023-07-02T07:31:49;8.03;;;7.73;;
6386;SDS011;3226;42.162;24.756;2023-07-02T07:34:17;8.30;;;7.80;;
6386;SDS011;3226;42.162;24.756;2023-07-02T07:36:45;6.97;;;6.67;;
6386;SDS011;3226;42.162;24.756;2023-07-02T07:39:15;6.07;;;5.87;;
6386;SDS011;3226;42.162;24.756;2023-07-02T07:41:46;7.43;;;7.13;;
6386;SDS011;3226;42.162;24.756;2023-07-02T07:44:14;5.90;;;5.70;;
6386;SDS011;3226;42.162;24.756;2023-07-02T07:46:42;7.03;;;6.73;;
6386;SDS011;3226;42.162;24.756;2023-07-02T07:49:11;8.20;;;7.90;;
6386;SDS011;3226;42.162;24.756;2023-07-02T07:51:40;7.93;;;7.63;;
6386;SDS011;3226;42.162;24.756;2023-07-02T07:54:08;7.30;;;6.90;;
6386;SDS011;3226;42.162;24.756;2023-07-02T07:56:37;15.57;;;14.87;;
6386;SDS011;3226;42.162;24.756;2023-07-02T07:59:05;7.93;;;7.63;;
6386;SDS011;3226;42.162;24.756;2023-07-02T08:01:33;8.10;;;7.80;;
6386;SDS011;3226;42.162;24.756;2023-07-02T08:04:01;8.80;;;8.40;;
6386;SDS011;3226;42.162;24.756;2023-07-02T08:06:29;8.70;;;8.30;;
6386;SDS011;3226;42.162;24.756;2023-07-02T08:08:58;8.63;;;8.23;;
6386;SDS011;3226;42.162;24.756;2023-07-02T08:11:26;6.87;;;6.57;;
6386;SDS011;3226;42.162;24.756;2023-07-02T08:13:55;8.17;;;7.83;;
6386;SDS011;3226;42.162;24.756;2023-07-02T08:16:23;9.97;;;9.57;;
6386;SDS011;3226;42.162;24.756;2023-07-02T08:18:51;12.00;;;11.50;;
6386;SDS011;3226;42.162;24.756;2023-07-02T08:21:19;7.93;;;7.63;;
6386;SDS011;3226;42.162;24.756;2023-07-02T08:23:47;7.80;;;7.50;;
6386;SDS011;3226;42.162;24.756;2023-07-02T08:26:15;7.03;;;6.73;;
6386;SDS011;3226;42.162;24.756;2023-07-02T08:28:43;7.10;;;6.80;;
6386;SDS011;3226;42.162;24.756;2023-07-02T08:31:12;6.33;;;6.10;;
6386;SDS011;3226;42.162;24.756;2023-07-02T08:33:41;7.67;;;7.37;;
6386;SDS011;3226;42.162;24.756;2023-07-02T08:36:08;7.37;;;7.07;;
6386;SDS011;3226;42.162;24.756;2023-07-02T08:38:37;7.03;;;6.73;;
6386;SDS011;3226;42.162;24.756;2023-07-02T08:41:06;7.40;;;7.10;;
6386;SDS011;3226;42.162;24.756;2023-07-02T08:43:34;9.33;;;8.93;;
6386;SDS011;3226;42.162;24.756;2023-07-02T08:46:03;9.43;;;9.03;;
6386;SDS011;3226;42.162;24.756;2023-07-02T08:48:35;7.43;;;7.13;;
6386;SDS011;3226;42.162;24.756;2023-07-02T08:51:03;6.97;;;6.67;;
6386;SDS011;3226;42.162;24.756;2023-07-02T08:53:31;6.93;;;6.63;;
6386;SDS011;3226;42.162;24.756;2023-07-02T08:56:00;8.90;;;8.50;;
6386;SDS011;3226;42.162;24.756;2023-07-02T08:58:30;7.17;;;6.87;;
6386;SDS011;3226;42.162;24.756;2023-07-02T09:01:05;7.27;;;6.97;;
6386;SDS011;3226;42.162;24.756;2023-07-02T09:03:36;6.83;;;6.53;;
6386;SDS011;3226;42.162;24.756;2023-07-02T09:06:05;6.77;;;6.47;;
6386;SDS011;3226;42.162;24.756;2023-07-02T09:08:33;7.63;;;7.33;;
6386;SDS011;3226;42.162;24.756;2023-07-02T09:11:05;6.10;;;5.90;;
6386;SDS011;3226;42.162;24.756;2023-07-02T09:13:44;9.17;;;8.77;;
6386;SDS011;3226;42.162;24.756;2023-07-02T09:16:22;9.67;;;9.27;;
6386;SDS011;3226;42.162;24.756;2023-07-02T09:18:56;6.73;;;6.43;;
6386;SDS011;3226;42.162;24.756;2023-07-02T09:21:37;5.77;;;5.57;;
6386;SDS011;3226;42.162;24.756;2023-07-02T09:24:14;8.10;;;7.70;;
6386;SDS011;3226;42.162;24.756;2023-07-02T09:26:43;7.27;;;6.97;;
6386;SDS011;3226;42.162;24.756;2023-07-02T09:29:12;7.83;;;7.53;;
6386;SDS011;3226;42.162;24.756;2023-07-02T09:31:44;6.90;;;6.60;;
6386;SDS011;3226;42.162;24.756;2023-07-02T09:34:34;7.00;;;6.70;;
6386;SDS011;3226;42.162;24.756;2023-07-02T09:37:04;7.43;;;7.13;;
6386;SDS011;3226;42.162;24.756;2023-07-02T09:39:34;6.37;;;6.07;;
6386;SDS011;3226;42.162;24.756;2023-07-02T09:42:05;8.23;;;7.83;;
6386;SDS011;3226;42.162;24.756;2023-07-02T09:44:34;9.33;;;8.93;;
6386;SDS011;3226;42.162;24.756;2023-07-02T09:47:04;7.20;;;6.90;;
6386;SDS011;3226;42.162;24.756;2023-07-02T09:49:34;6.90;;;6.60;;
6386;SDS011;3226;42.162;24.756;2023-07-02T09:52:04;11.43;;;10.93;;
6386;SDS011;3226;42.162;24.756;2023-07-02T09:54:33;10.33;;;9.90;;
6386;SDS011;3226;42.162;24.756;2023-07-02T09:57:01;7.80;;;7.50;;
6386;SDS011;3226;42.162;24.756;2023-07-02T09:59:30;9.10;;;8.70;;
6386;SDS011;3226;42.162;24.756;2023-07-02T10:01:59;10.13;;;9.63;;
6386;SDS011;3226;42.162;24.756;2023-07-02T10:04:38;9.20;;;8.80;;
6386;SDS011;3226;42.162;24.756;2023-07-02T10:07:09;8.13;;;7.83;;
6386;SDS011;3226;42.162;24.756;2023-07-02T10:09:37;7.97;;;7.67;;
6386;SDS011;3226;42.162;24.756;2023-07-02T10:12:17;8.43;;;8.07;;
6386;SDS011;3226;42.162;24.756;2023-07-02T10:14:46;7.73;;;7.43;;
6386;SDS011;3226;42.162;24.756;2023-07-02T10:17:24;8.03;;;7.73;;
6386;SDS011;3226;42.162;24.756;2023-07-02T10:19:57;8.20;;;7.90;;
6386;SDS011;3226;42.162;24.756;2023-07-02T10:22:26;10.27;;;9.83;;
6386;SDS011;3226;42.162;24.756;2023-07-02T10:24:54;8.60;;;8.20;;
6386;SDS011;3226;42.162;24.756;2023-07-02T10:27:33;6.53;;;6.23;;
6386;SDS011;3226;42.162;24.756;2023-07-02T10:30:02;9.93;;;9.53;;
6386;SDS011;3226;42.162;24.756;2023-07-02T10:32:32;7.87;;;7.57;;
6386;SDS011;3226;42.162;24.756;2023-07-02T10:35:12;9.97;;;9.57;;
6386;SDS011;3226;42.162;24.756;2023-07-02T10:37:41;6.60;;;6.30;;
6386;SDS011;3226;42.162;24.756;2023-07-02T10:40:09;6.93;;;6.63;;
6386;SDS011;3226;42.162;24.756;2023-07-02T10:42:45;6.87;;;6.57;;
6386;SDS011;3226;42.162;24.756;2023-07-02T10:45:13;7.60;;;7.30;;
6386;SDS011;3226;42.162;24.756;2023-07-02T10:47:42;7.83;;;7.53;;
6386;SDS011;3226;42.162;24.756;2023-07-02T10:50:16;7.53;;;7.23;;
6386;SDS011;3226;42.162;24.756;2023-07-02T10:52:44;6.67;;;6.37;;
6386;SDS011;3226;42.162;24.756;2023-07-02T10:55:16;7.20;;;6.90;;
6386;SDS011;3226;42.162;24.756;2023-07-02T10:57:44;8.47;;;8.07;;
6386;SDS011;3226;42.162;24.756;2023-07-02T11:00:12;7.50;;;7.20;;
6386;SDS011;3226;42.162;24.756;2023-07-02T11:02:41;8.93;;;8.53;;
6386;SDS011;3226;42.162;24.756;2023-07-02T11:05:09;8.53;;;8.13;;
6386;SDS011;3226;42.162;24.756;2023-07-02T11:07:40;6.70;;;6.40;;
6386;SDS011;3226;42.162;24.756;2023-07-02T11:10:10;6.53;;;6.23;;
6386;SDS011;3226;42.162;24.756;2023-07-02T11:12:45;9.70;;;9.30;;
6386;SDS011;3226;42.162;24.756;2023-07-02T11:15:13;12.10;;;11.60;;
6386;SDS011;3226;42.162;24.756;2023-07-02T11:17:44;8.10;;;7.80;;
6386;SDS011;3226;42.162;24.756;2023-07-02T11:20:12;7.33;;;7.03;;
6386;SDS011;3226;42.162;24.756;2023-07-02T11:22:42;6.10;;;5.90;;
6386;SDS011;3226;42.162;24.756;2023-07-02T11:25:11;6.03;;;5.83;;
6386;SDS011;3226;42.162;24.756;2023-07-02T11:27:40;6.53;;;6.23;;
6386;SDS011;3226;42.162;24.756;2023-07-02T11:30:09;6.83;;;6.53;;
6386;SDS011;3226;42.162;24.756;2023-07-02T11:32:48;7.17;;;6.87;;
6386;SDS011;3226;42.162;24.756;2023-07-02T11:35:18;7.27;;;6.97;;
6386;SDS011;3226;42.162;24.756;2023-07-02T11:37:48;5.67;;;5.47;;
6386;SDS011;3226;42.162;24.756;2023-07-02T11:40:17;6.90;;;6.60;;
6386;SDS011;3226;42.162;24.756;2023-07-02T11:42:46;7.47;;;7.17;;
6386;SDS011;3226;42.162;24.756;2023-07-02T11:45:14;8.50;;;8.10;;
6386;SDS011;3226;42.162;24.756;2023-07-02T11:47:42;7.93;;;7.63;;
6386;SDS011;3226;42.162;24.756;2023-07-02T11:50:10;8.07;;;7.77;;
6386;SDS011;3226;42.162;24.756;2023-07-02T11:52:52;7.27;;;6.97;;
6386;SDS011;3226;42.162;24.756;2023-07-02T11:55:20;7.63;;;7.33;;
6386;SDS011;3226;42.162;24.756;2023-07-02T11:57:48;6.77;;;6.47;;
6386;SDS011;3226;42.162;24.756;2023-07-02T12:00:17;7.83;;;7.53;;
6386;SDS011;3226;42.162;24.756;2023-07-02T12:02:45;7.70;;;7.40;;
6386;SDS011;3226;42.162;24.756;2023-07-02T12:05:13;8.27;;;7.97;;
6386;SDS011;3226;42.162;24.756;2023-07-02T12:07:41;8.23;;;7.93;;
6386;SDS011;3226;42.162;24.756;2023-07-02T12:10:10;10.43;;;9.93;;
6386;SDS011;3226;42.162;24.756;2023-07-02T12:12:38;11.23;;;10.73;;
6386;SDS011;3226;42.162;24.756;2023-07-02T12:15:06;7.70;;;7.40;;
6386;SDS011;3226;42.162;24.756;2023-07-02T12:17:35;9.90;;;9.50;;
6386;SDS011;3226;42.162;24.756;2023-07-02T12:20:03;9.43;;;9.03;;
6386;SDS011;3226;42.162;24.756;2023-07-02T12:22:32;9.67;;;9.27;;
6386;SDS011;3226;42.162;24.756;2023-07-02T12:25:00;10.43;;;9.93;;
6386;SDS011;3226;42.162;24.756;2023-07-02T12:27:29;9.33;;;8.93;;
6386;SDS011;3226;42.162;24.756;2023-07-02T12:29:57;9.33;;;8.93;;
6386;SDS011;3226;42.162;24.756;2023-07-02T12:32:25;9.37;;;8.97;;
6386;SDS011;3226;42.162;24.756;2023-07-02T12:34:53;10.17;;;9.77;;
6386;SDS011;3226;42.162;24.756;2023-07-02T12:37:21;11.57;;;11.07;;
6386;SDS011;3226;42.162;24.756;2023-07-02T12:39:49;7.57;;;7.27;;
6386;SDS011;3226;42.162;24.756;2023-07-02T12:42:17;7.37;;;7.07;;
6386;SDS011;3226;42.162;24.756;2023-07-02T12:44:47;8.93;;;8.53;;
6386;SDS011;3226;42.162;24.756;2023-07-02T12:47:15;7.90;;;7.60;;
6386;SDS011;3226;42.162;24.756;2023-07-02T12:49:43;6.27;;;5.97;;
6386;SDS011;3226;42.162;24.756;2023-07-02T12:52:10;6.27;;;6.00;;
6386;SDS011;3226;42.162;24.756;2023-07-02T12:54:38;6.83;;;6.53;;
6386;SDS011;3226;42.162;24.756;2023-07-02T12:57:06;15.07;;;14.40;;
6386;SDS011;3226;42.162;24.756;2023-07-02T12:59:34;23.83;;;22.73;;
6386;SDS011;3226;42.162;24.756;2023-07-02T13:02:04;20.37;;;19.47;;
6386;SDS011;3226;42.162;24.756;2023-07-02T13:04:33;17.70;;;16.80;;
6386;SDS011;3226;42.162;24.756;2023-07-02T13:07:01;12.47;;;11.90;;
6386;SDS011;3226;42.162;24.756;2023-07-02T13:09:29;9.20;;;8.80;;
6386;SDS011;3226;42.162;24.756;2023-07-02T13:11:57;9.37;;;8.97;;
6386;SDS011;3226;42.162;24.756;2023-07-02T13:14:25;11.87;;;11.37;;
6386;SDS011;3226;42.162;24.756;2023-07-02T13:16:53;10.43;;;10.00;;
6386;SDS011;3226;42.162;24.756;2023-07-02T13:19:23;9.97;;;9.57;;
6386;SDS011;3226;42.162;24.756;2023-07-02T13:21:51;10.67;;;10.17;;
6386;SDS011;3226;42.162;24.756;2023-07-02T13:24:19;6.97;;;6.67;;
6386;SDS011;3226;42.162;24.756;2023-07-02T13:26:47;7.07;;;6.77;;
6386;SDS011;3226;42.162;24.756;2023-07-02T13:29:15;7.90;;;7.60;;
6386;SDS011;3226;42.162;24.756;2023-07-02T13:31:43;7.40;;;7.10;;
6386;SDS011;3226;42.162;24.756;2023-07-02T13:34:11;8.27;;;7.90;;
6386;SDS011;3226;42.162;24.756;2023-07-02T13:36:41;7.60;;;7.30;;
6386;SDS011;3226;42.162;24.756;2023-07-02T13:39:09;8.03;;;7.73;;
6386;SDS011;3226;42.162;24.756;2023-07-02T13:41:37;9.53;;;9.13;;
6386;SDS011;3226;42.162;24.756;2023-07-02T13:44:05;8.77;;;8.37;;
6386;SDS011;3226;42.162;24.756;2023-07-02T13:46:33;14.57;;;13.90;;
6386;SDS011;3226;42.162;24.756;2023-07-02T13:49:01;10.30;;;9.87;;
6386;SDS011;3226;42.162;24.756;2023-07-02T13:51:29;7.80;;;7.50;;
6386;SDS011;3226;42.162;24.756;2023-07-02T13:53:59;7.10;;;6.80;;
6386;SDS011;3226;42.162;24.756;2023-07-02T13:56:27;7.23;;;6.93;;
6386;SDS011;3226;42.162;24.756;2023-07-02T13:58:59;7.60;;;7.30;;
6386;SDS011;3226;42.162;24.756;2023-07-02T14:01:28;7.67;;;7.37;;
6386;SDS011;3226;42.162;24.756;2023-07-02T14:03:57;7.60;;;7.30;;
6386;SDS011;3226;42.162;24.756;2023-07-02T14:06:25;6.70;;;6.40;;
6386;SDS011;3226;42.162;24.756;2023-07-02T14:08:53;7.73;;;7.43;;
6386;SDS011;3226;42.162;24.756;2023-07-02T14:11:22;7.27;;;6.97;;
6386;SDS011;3226;42.162;24.756;2023-07-02T14:13:50;7.47;;;7.13;;
6386;SDS011;3226;42.162;24.756;2023-07-02T14:16:20;9.60;;;9.03;;
6386;SDS011;3226;42.162;24.756;2023-07-02T14:18:48;10.87;;;10.17;;
6386;SDS011;3226;42.162;24.756;2023-07-02T14:21:16;9.17;;;8.77;;
6386;SDS011;3226;42.162;24.756;2023-07-02T14:23:44;7.73;;;7.43;;
6386;SDS011;3226;42.162;24.756;2023-07-02T14:26:12;8.03;;;7.73;;
6386;SDS011;3226;42.162;24.756;2023-07-02T14:28:40;7.80;;;7.50;;
6386;SDS011;3226;42.162;24.756;2023-07-02T14:31:08;8.87;;;8.47;;
6386;SDS011;3226;42.162;24.756;2023-07-02T14:33:38;6.97;;;6.67;;
6386;SDS011;3226;42.162;24.756;2023-07-02T14:36:06;9.90;;;9.47;;
6386;SDS011;3226;42.162;24.756;2023-07-02T14:38:35;11.93;;;11.43;;
6386;SDS011;3226;42.162;24.756;2023-07-02T14:41:03;9.67;;;9.27;;
6386;SDS011;3226;42.162;24.756;2023-07-02T14:43:31;8.37;;;8.03;;
6386;SDS011;3226;42.162;24.756;2023-07-02T14:45:59;9.23;;;8.83;;
6386;SDS011;3226;42.162;24.756;2023-07-02T14:48:29;11.17;;;10.67;;
6386;SDS011;3226;42.162;24.756;2023-07-02T14:50:59;9.17;;;8.77;;
6386;SDS011;3226;42.162;24.756;2023-07-02T14:53:29;8.67;;;8.27;;
6386;SDS011;3226;42.162;24.756;2023-07-02T14:55:59;9.23;;;8.83;;
6386;SDS011;3226;42.162;24.756;2023-07-02T14:58:28;9.00;;;8.60;;
6386;SDS011;3226;42.162;24.756;2023-07-02T15:00:57;9.80;;;9.40;;
6386;SDS011;3226;42.162;24.756;2023-07-02T15:03:27;12.67;;;12.07;;
6386;SDS011;3226;42.162;24.756;2023-07-02T15:06:06;11.93;;;11.43;;
6386;SDS011;3226;42.162;24.756;2023-07-02T15:08:35;10.90;;;10.40;;